createdAt,value
2022-12-20T00:01:44.945Z,79.32
2022-12-20T00:04:12.777Z,79.55
2022-12-20T00:06:39.806Z,79.34
2022-12-20T00:09:07.342Z,79.39
2022-12-20T00:11:34.415Z,79.27
2022-12-20T00:14:01.064Z,79.06
2022-12-20T00:16:28.557Z,79.13
2022-12-20T00:18:57.504Z,79.08
2022-12-20T00:21:24.248Z,78.80
2022-12-20T00:23:54.181Z,78.63
2022-12-20T00:26:22.932Z,78.32
2022-12-20T00:28:49.595Z,77.96
2022-12-20T00:31:17.484Z,77.79
2022-12-20T00:33:48.721Z,77.53
2022-12-20T00:36:15.571Z,77.34
2022-12-20T00:38:44.604Z,77.05
2022-12-20T00:41:13.072Z,76.99
2022-12-20T00:43:40.175Z,76.58
2022-12-20T00:46:07.633Z,76.38
2022-12-20T00:48:34.429Z,76.24
2022-12-20T00:51:01.574Z,76.19
2022-12-20T00:53:28.424Z,75.91
2022-12-20T00:55:55.043Z,75.99
2022-12-20T00:58:21.933Z,75.93
2022-12-20T01:00:54.050Z,75.97
2022-12-20T01:03:23.438Z,75.88
2022-12-20T01:06:00.560Z,75.89
2022-12-20T01:08:28.224Z,75.81
2022-12-20T01:11:06.239Z,75.69
2022-12-20T01:13:33.459Z,76.01
2022-12-20T01:16:07.946Z,75.94
2022-12-20T01:18:34.873Z,75.92
2022-12-20T01:21:05.761Z,75.96
2022-12-20T01:23:32.478Z,76.11
2022-12-20T01:26:02.781Z,76.33
2022-12-20T01:28:29.553Z,76.32
2022-12-20T01:30:56.198Z,76.27
2022-12-20T01:33:23.053Z,76.40
2022-12-20T01:36:08.842Z,76.24
2022-12-20T01:38:35.800Z,76.14
2022-12-20T01:41:02.799Z,76.20
2022-12-20T01:44:25.145Z,76.23
2022-12-20T01:46:52.833Z,76.12
2022-12-20T01:49:20.783Z,76.21
2022-12-20T01:51:49.772Z,76.02
2022-12-20T01:54:28.219Z,76.09
2022-12-20T01:56:57.429Z,76.16
2022-12-20T01:59:24.438Z,76.19
2022-12-20T02:01:51.241Z,76.11
2022-12-20T02:04:17.961Z,76.13
2022-12-20T02:06:44.677Z,76.08
2022-12-20T02:09:12.260Z,76.14
2022-12-20T02:11:41.455Z,75.94
2022-12-20T02:14:26.923Z,76.00
2022-12-20T02:17:01.648Z,75.95
2022-12-20T02:19:47.275Z,75.97
2022-12-20T02:22:30.899Z,76.01
2022-12-20T02:25:15.013Z,75.86
2022-12-20T02:27:54.739Z,75.82
2022-12-20T02:30:22.882Z,75.69
2022-12-20T02:33:07.325Z,75.39
2022-12-20T02:35:35.491Z,75.09
2022-12-20T02:38:24.558Z,74.73
2022-12-20T02:40:52.394Z,74.45
2022-12-20T02:43:38.176Z,74.30
2022-12-20T02:46:05.059Z,74.06
2022-12-20T02:48:32.710Z,73.71
2022-12-20T02:50:59.501Z,73.40
2022-12-20T02:53:26.243Z,73.29
2022-12-20T02:55:57.248Z,73.03
2022-12-20T02:58:32.383Z,72.60
2022-12-20T03:01:04.594Z,72.26
2022-12-20T03:03:32.982Z,71.84
2022-12-20T03:05:59.700Z,71.49
2022-12-20T03:08:26.481Z,70.87
2022-12-20T03:10:53.892Z,70.54
2022-12-20T03:13:21.742Z,70.04
2022-12-20T03:15:56.049Z,70.01
2022-12-20T03:18:22.767Z,69.80
2022-12-20T03:20:49.573Z,69.55
2022-12-20T03:23:16.558Z,69.41
2022-12-20T03:25:43.302Z,69.41
2022-12-20T03:28:11.411Z,69.28
2022-12-20T03:30:38.214Z,69.36
2022-12-20T03:33:04.940Z,69.28
2022-12-20T03:35:31.656Z,69.33
2022-12-20T03:37:58.509Z,69.20
2022-12-20T03:40:25.446Z,69.15
2022-12-20T03:42:52.498Z,68.79
2022-12-20T03:45:19.189Z,68.76
2022-12-20T03:47:46.237Z,68.56
2022-12-20T03:50:12.945Z,68.19
2022-12-20T03:52:40.314Z,68.22
2022-12-20T03:55:07.877Z,67.96
2022-12-20T03:57:40.140Z,67.62
2022-12-20T04:00:16.435Z,67.25
2022-12-20T04:02:45.569Z,66.89
2022-12-20T04:05:12.573Z,66.36
2022-12-20T04:07:39.310Z,66.07
2022-12-20T04:10:06.640Z,65.71
2022-12-20T04:12:33.325Z,65.25
2022-12-20T04:15:00.388Z,65.04
2022-12-20T04:17:27.980Z,64.91
2022-12-20T04:19:55.150Z,64.58
2022-12-20T04:22:22.245Z,64.44
2022-12-20T04:24:54.505Z,64.17
2022-12-20T04:27:26.667Z,63.75
2022-12-20T04:29:53.845Z,63.53
2022-12-20T04:32:20.593Z,63.38
2022-12-20T04:34:47.325Z,63.34
2022-12-20T04:37:13.971Z,63.39
2022-12-20T04:39:50.844Z,63.01
2022-12-20T04:42:26.538Z,62.81
2022-12-20T04:44:53.641Z,62.84
2022-12-20T04:47:25.891Z,62.59
2022-12-20T04:49:53.068Z,62.25
2022-12-20T04:52:43.494Z,61.64
2022-12-20T04:55:14.164Z,61.14
2022-12-20T04:57:40.966Z,61.08
2022-12-20T05:00:08.358Z,61.27
2022-12-20T05:02:37.387Z,61.03
2022-12-20T05:05:09.028Z,60.89
2022-12-20T05:07:40.822Z,60.48
2022-12-20T06:23:58.084Z,54.73
2022-12-20T06:26:25.115Z,54.63
2022-12-20T06:28:54.742Z,54.86
2022-12-20T06:31:25.410Z,54.89
2022-12-20T06:33:53.976Z,54.45
2022-12-20T06:36:22.399Z,54.25
2022-12-20T06:38:49.714Z,54.16
2022-12-20T06:41:16.419Z,54.00
2022-12-20T06:43:43.173Z,54.00
2022-12-20T06:46:10.541Z,53.78
2022-12-20T06:48:37.238Z,54.00
2022-12-20T06:51:05.372Z,53.85
2022-12-20T06:53:31.956Z,53.82
2022-12-20T06:55:59.178Z,53.98
2022-12-20T06:58:25.825Z,54.05
2022-12-20T07:00:52.527Z,53.79
2022-12-20T07:03:19.329Z,53.53
2022-12-20T07:05:50.964Z,53.39
2022-12-20T07:08:17.707Z,53.12
2022-12-20T07:10:44.489Z,53.42
2022-12-20T07:13:11.164Z,53.41
2022-12-20T07:15:37.874Z,53.39
2022-12-20T07:18:04.848Z,53.55
2022-12-20T07:20:31.539Z,53.25
2022-12-20T07:23:00.140Z,53.00
2022-12-20T07:25:26.786Z,53.56
2022-12-20T07:27:53.453Z,53.43
2022-12-20T07:30:20.405Z,53.63
2022-12-20T07:32:47.489Z,53.48
2022-12-20T07:35:14.360Z,53.43
2022-12-20T07:37:41.054Z,53.77
2022-12-20T07:40:09.045Z,54.13
2022-12-20T07:42:39.167Z,54.06
2022-12-20T07:45:08.534Z,54.15
2022-12-20T07:47:35.883Z,54.65
2022-12-20T07:50:03.190Z,54.53
2022-12-20T07:52:29.962Z,54.83
2022-12-20T07:55:01.905Z,54.66
2022-12-20T07:57:34.947Z,54.28
2022-12-20T08:00:01.816Z,54.48
2022-12-20T08:03:02.684Z,54.34
2022-12-20T08:05:29.465Z,54.52
2022-12-20T08:07:59.415Z,54.43
2022-12-20T08:10:26.477Z,54.59
2022-12-20T08:12:53.114Z,54.45
2022-12-20T08:15:21.995Z,54.85
2022-12-20T08:17:49.625Z,54.67
2022-12-20T08:20:16.574Z,54.81
2022-12-20T08:22:43.170Z,55.17
2022-12-20T16:24:55.168Z,72.49
2022-12-20T16:27:21.841Z,72.77
2022-12-20T16:29:48.520Z,73.35
2022-12-20T16:32:19.072Z,73.75
2022-12-20T16:34:45.914Z,74.25
2022-12-20T16:37:12.657Z,74.58
2022-12-20T16:39:39.768Z,74.93
2022-12-20T16:42:13.116Z,75.13
2022-12-20T16:44:42.738Z,75.38
2022-12-20T16:47:10.253Z,75.78
2022-12-20T16:49:36.991Z,75.95
2022-12-20T16:52:04.520Z,76.12
2022-12-20T16:54:31.975Z,76.57
2022-12-20T16:56:58.672Z,76.75
2022-12-20T16:59:25.653Z,77.02
2022-12-20T17:01:53.474Z,77.11
2022-12-20T17:04:21.198Z,77.37
2022-12-20T17:06:48.166Z,77.38
2022-12-20T17:09:16.305Z,77.15
2022-12-20T17:32:47.812Z,76.05
2022-12-20T17:35:22.378Z,75.42
2022-12-20T17:37:50.726Z,75.28
2022-12-20T17:40:17.624Z,75.04
2022-12-20T17:42:44.257Z,74.61
2022-12-20T17:45:31.513Z,74.63
2022-12-20T17:47:58.418Z,74.51
2022-12-20T17:50:25.283Z,74.34
2022-12-20T17:52:52.487Z,74.22
2022-12-20T17:55:25.101Z,74.10
2022-12-20T17:57:52.437Z,74.06
2022-12-20T18:00:24.744Z,74.04
2022-12-20T18:02:52.084Z,73.97
2022-12-20T18:05:18.959Z,74.02
2022-12-20T18:07:50.008Z,73.92
2022-12-20T18:10:16.800Z,74.10
2022-12-20T18:12:43.528Z,74.12
2022-12-20T18:15:10.695Z,74.27
2022-12-20T18:17:38.239Z,74.22
2022-12-20T18:20:07.282Z,74.31
2022-12-20T18:22:34.673Z,74.02
2022-12-20T18:25:03.736Z,74.26
2022-12-20T18:27:31.389Z,73.85
2022-12-20T18:29:58.164Z,74.21
2022-12-20T18:32:25.141Z,73.96
2022-12-20T18:34:51.962Z,73.92
2022-12-20T18:37:18.661Z,74.04
2022-12-20T18:39:45.391Z,73.98
2022-12-20T18:42:12.078Z,73.90
2022-12-20T18:44:38.919Z,73.85
2022-12-20T18:47:05.714Z,74.28
2022-12-20T18:49:32.469Z,73.98
2022-12-20T18:51:59.821Z,73.99
2022-12-20T18:54:26.687Z,74.17
2022-12-20T18:56:53.272Z,74.15
2022-12-20T18:59:21.195Z,74.09
2022-12-20T19:01:48.076Z,74.09
2022-12-20T19:04:20.812Z,74.10
2022-12-20T19:06:50.835Z,74.03
2022-12-20T19:09:17.506Z,74.13
2022-12-20T19:11:44.227Z,74.24
2022-12-20T19:14:11.222Z,74.30
2022-12-20T19:16:39.629Z,74.37
2022-12-20T19:19:08.625Z,74.38
2022-12-20T19:21:36.175Z,74.46
2022-12-20T19:24:05.647Z,74.49
2022-12-20T19:26:32.995Z,74.21
2022-12-20T19:29:00.141Z,74.30
2022-12-20T19:31:28.903Z,74.01
2022-12-20T19:33:57.083Z,74.26
2022-12-20T19:36:38.168Z,74.26
2022-12-20T19:39:12.426Z,74.22
2022-12-20T19:41:40.089Z,74.22
2022-12-20T19:44:07.335Z,74.23
2022-12-20T19:46:34.200Z,74.27
2022-12-20T19:49:00.908Z,74.46
2022-12-20T19:51:27.936Z,74.24
2022-12-20T19:53:54.914Z,74.42
2022-12-20T19:56:23.356Z,74.40
2022-12-20T19:58:50.157Z,74.50
2022-12-20T20:01:17.906Z,74.57
2022-12-20T20:03:45.085Z,74.50
2022-12-20T20:06:12.014Z,74.75
2022-12-20T20:08:38.620Z,74.69
2022-12-20T20:11:09.775Z,74.61
2022-12-20T20:13:37.409Z,74.71
2022-12-20T20:16:04.694Z,74.56
2022-12-20T20:18:33.728Z,74.70
2022-12-20T20:21:00.439Z,74.83
2022-12-20T20:23:27.233Z,74.79
2022-12-20T20:25:56.857Z,74.81
2022-12-20T20:28:31.310Z,74.60
2022-12-20T20:30:59.200Z,74.68
2022-12-20T20:33:26.105Z,74.54
2022-12-20T20:35:54.475Z,74.64
2022-12-20T20:38:21.268Z,74.49
2022-12-20T20:40:47.942Z,74.64
2022-12-20T20:43:14.697Z,74.46
2022-12-20T20:45:41.376Z,74.55
2022-12-20T20:48:08.047Z,74.47
2022-12-20T20:50:34.722Z,74.72
2022-12-20T20:53:01.437Z,74.72
2022-12-20T20:55:28.096Z,74.55
2022-12-20T20:57:54.959Z,74.62
2022-12-20T21:00:21.602Z,74.31
2022-12-20T21:02:48.523Z,74.31
2022-12-20T21:08:02.154Z,74.33
2022-12-20T21:10:28.992Z,74.29
2022-12-20T21:12:55.803Z,74.36
2022-12-20T21:15:24.313Z,74.60
2022-12-20T21:17:51.396Z,74.70
2022-12-20T21:20:23.845Z,74.67
2022-12-20T21:22:52.550Z,74.64
2022-12-20T21:25:19.275Z,74.84
2022-12-20T21:27:46.018Z,74.64
2022-12-20T21:30:13.037Z,74.67
2022-12-20T21:32:39.805Z,74.75
2022-12-20T21:35:06.800Z,74.89
2022-12-20T21:37:33.495Z,75.19
2022-12-20T21:40:00.175Z,75.23
2022-12-20T21:42:26.875Z,75.15
2022-12-20T21:44:53.568Z,75.52
2022-12-20T21:47:21.341Z,75.44
2022-12-20T21:49:48.006Z,75.27
2022-12-20T21:52:14.678Z,75.25
2022-12-20T21:54:42.916Z,75.40
2022-12-20T21:57:10.539Z,75.32
2022-12-20T21:59:37.797Z,75.35
2022-12-20T22:02:05.117Z,75.15
2022-12-20T22:04:32.943Z,75.23
2022-12-20T22:06:59.654Z,75.28
2022-12-20T22:09:26.497Z,75.19
2022-12-20T22:11:53.127Z,74.88
2022-12-20T22:14:19.890Z,75.07
2022-12-20T22:16:46.800Z,74.94
2022-12-20T22:19:14.716Z,74.64
2022-12-20T22:21:41.440Z,74.68
2022-12-20T22:24:08.886Z,74.77
2022-12-20T22:26:36.938Z,74.65
2022-12-20T22:29:05.143Z,74.69
2022-12-20T22:31:32.117Z,74.61
2022-12-20T22:33:59.299Z,74.45
2022-12-20T22:36:26.350Z,74.55
2022-12-20T22:38:54.148Z,74.57
2022-12-20T22:41:28.806Z,74.59
2022-12-20T22:43:55.860Z,74.63
2022-12-20T22:46:22.486Z,74.55
2022-12-20T22:48:49.258Z,74.48
2022-12-20T22:51:16.864Z,74.57
2022-12-20T22:53:43.715Z,74.65
2022-12-20T22:56:10.434Z,74.55
2022-12-20T22:58:37.376Z,74.69
2022-12-20T23:01:05.939Z,74.86
2022-12-20T23:03:32.829Z,74.92
2022-12-20T23:06:00.831Z,74.87
2022-12-20T23:08:29.850Z,74.92
2022-12-20T23:11:15.380Z,75.00
2022-12-20T23:14:00.730Z,74.94
2022-12-20T23:16:27.866Z,75.11
2022-12-20T23:18:59.013Z,74.88
2022-12-20T23:21:44.210Z,75.01
2022-12-20T23:24:11.166Z,75.12
2022-12-20T23:26:38.586Z,75.14
2022-12-20T23:29:05.950Z,75.01
2022-12-20T23:31:32.940Z,75.01
2022-12-20T23:33:59.914Z,74.86
2022-12-20T23:36:26.501Z,74.84
2022-12-20T23:38:53.192Z,74.93
2022-12-20T23:41:19.882Z,74.88
2022-12-20T23:43:46.633Z,74.82
2022-12-20T23:46:14.153Z,75.05
2022-12-20T23:48:41.059Z,75.12
2022-12-20T23:51:08.194Z,75.18
2022-12-20T23:53:34.932Z,75.20
2022-12-20T23:56:09.966Z,75.24
2022-12-20T23:58:36.782Z,75.36
